Latest Weather Observations for Cairns

IDQ60801

Issued at 12:12 pm EST Monday 8 March 2021 (issued every 10 minutes, with the page automatically refreshed every 10 minutes)

About weather observations | Map of weather stations | Latest weather observations for QLD | Other Formats
Station Details ID: 031011 Name: CAIRNS AERO Lat: -16.87 Lon: 145.75 Height: 2.22 m
Data from the previous 72 hours. | See also: Recent months at Cairns
Date/Time
EST
Temp
°C
App
Temp
°C
Dew
Point
°C
Rel
Hum
%
Delta-T
°C
Wind Press
QNH
hPa
Press
MSL
hPa
Rain since
9am
mm
Dir  Spd
km/h
Gust
km/h
Spd
kts
Gust
kts
08/12:00pm 30.0 32.1 22.4 63 5.2 ENE 15 19 8 10 1013.0 1013.0 0.0
08/11:30am 28.1 29.1 21.1 65 4.6 ESE 17 28 9 15 1013.4 1013.4 0.0
08/11:00am 29.2 31.9 21.4 63 5.2 ESE 9 17 5 9 1013.5 1013.5 0.0
08/10:30am 29.2 31.9 21.4 63 5.2 ESE 9 17 5 9 1013.8 1013.8 0.0
08/10:00am 28.6 31.4 21.6 66 4.7 SE 9 15 5 8 1013.9 1013.9 0.0
08/09:30am 28.5 32.6 23.2 73 3.6 SSE 7 13 4 7 1013.7 1013.7 0.0
08/09:00am 27.5 31.1 22.4 73 3.4 SSE 7 13 4 7 1013.6 1013.6 1.0
08/08:30am 26.4 30.3 22.9 81 2.4 SSE 7 13 4 7 1013.5 1013.5 1.0
08/08:00am 26.1 29.7 22.4 80 2.5 S 7 11 4 6 1013.2 1013.2 1.0
08/07:30am 25.4 30.8 23.3 88 1.4 CALM 0 2 0 1 1012.8 1012.8 1.0
08/07:00am 24.4 29.9 23.4 94 0.7 CALM 0 0 0 0 1012.3 1012.3 1.0
08/06:30am 24.0 28.7 22.6 92 0.9 SW 2 6 1 3 1012.2 1012.2 1.0
08/06:00am 23.9 27.6 22.3 91 1.1 SE 6 7 3 4 1011.9 1011.9 1.0
08/05:30am 24.1 28.3 22.4 90 1.1 SSE 4 6 2 3 1011.5 1011.5 1.0
08/05:00am 24.7 27.9 22.4 87 1.5 SE 9 17 5 9 1011.4 1011.4 0.8
08/04:30am 24.2 27.9 22.5 90 1.1 SE 7 11 4 6 1011.1 1011.1 0.4
08/04:00am 24.2 27.8 22.3 89 1.3 SSE 7 11 4 6 1011.0 1011.0 0.4
08/03:30am 24.4 28.0 22.3 88 1.4 SE 7 9 4 5 1011.0 1011.0 0.4
08/03:00am 24.7 28.5 22.4 87 1.5 SSE 6 9 3 5 1010.9 1010.9 0.4
08/02:30am 25.2 28.9 22.3 84 1.9 SE 6 7 3 4 1011.2 1011.2 0.2
08/02:00am 26.0 30.0 22.1 79 2.6 ESE 4 7 2 4 1011.3 1011.3 0.2
08/01:30am 26.2 29.7 21.8 77 2.9 E 6 13 3 7 1011.4 1011.4 0.2
08/01:00am 26.1 29.5 22.0 78 2.7 E 7 11 4 6 1011.8 1011.8 0.2
08/12:30am 26.6 28.9 21.4 73 3.5 ENE 11 15 6 8 1012.2 1012.2 0.2
08/12:00am 26.7 28.7 21.5 73 3.5 E 13 17 7 9 1012.3 1012.3 0.2
 
Date/Time
EST
Temp
°C
App
Temp
°C
Dew
Point
°C
Rel
Hum
%
Delta-T
°C
Wind Press
QNH
hPa
Press
MSL
hPa
Rain since
9am
mm
Dir  Spd
km/h
Gust
km/h
Spd
kts
Gust
kts
07/11:30pm 27.0 30.3 22.6 77 3.0 E 9 17 5 9 1012.3 1012.3 0.2
07/11:00pm 27.1 29.3 21.8 73 3.5 E 13 22 7 12 1012.5 1012.5 0.2
07/10:30pm 26.8 30.3 22.2 76 3.1 ENE 7 13 4 7 1012.4 1012.4 0.2
07/10:00pm 27.0 29.5 22.4 76 3.1 ENE 13 20 7 11 1012.4 1012.4 0.2
07/09:30pm 26.9 29.7 22.3 76 3.1 ENE 11 17 6 9 1012.2 1012.2 0.2
07/09:00pm 26.8 30.8 23.1 80 2.5 ENE 7 13 4 7 1011.9 1011.9 0.2
07/08:30pm 26.7 30.6 23.6 83 2.1 E 9 15 5 8 1011.6 1011.6 0.2
07/08:23pm 26.7 30.7 23.8 84 2.0 E 9 15 5 8 1011.5 1011.5 0.2
07/08:04pm 25.4 30.1 23.3 88 1.4 SE 4 7 2 4 1011.3 1011.3 0.2
07/08:00pm 25.4 29.5 22.9 86 1.7 SE 6 9 3 5 1011.2 1011.2 0.2
07/07:56pm 25.4 29.3 22.9 86 1.7 SE 7 9 4 5 1011.2 1011.2 0.2
07/07:33pm 26.2 30.1 22.9 82 2.2 E 7 22 4 12 1011.0 1011.0 0.0
07/07:30pm 27.1 31.7 23.8 82 2.3 E 6 7 3 4 1010.9 1010.9 0.0
07/07:00pm 27.4 30.6 22.4 74 3.4 ENE 9 15 5 8 1010.6 1010.6 0.0
07/06:30pm 27.5 30.2 22.9 76 3.1 ENE 13 17 7 9 1010.3 1010.3 0.0
07/06:00pm 27.8 31.3 23.6 78 2.9 NE 11 17 6 9 1009.9 1009.9 0.0
07/05:30pm 27.9 31.3 23.3 76 3.1 NE 11 17 6 9 1009.6 1009.6 0.0
07/05:00pm 28.3 30.6 22.8 72 3.7 NE 15 20 8 11 1009.4 1009.4 0.0
07/04:30pm 29.4 33.0 24.3 74 3.5 NNE 13 19 7 10 1009.1 1009.1 0.0
07/04:00pm 29.1 32.1 23.3 71 4.0 NE 13 19 7 10 1009.0 1009.0 0.0
07/03:30pm 29.3 32.3 23.3 70 4.1 NE 13 19 7 10 1009.0 1009.0 0.0
07/03:00pm 29.4 31.8 22.9 68 4.4 NE 15 20 8 11 1009.1 1009.1 0.0
07/02:30pm 30.3 33.7 24.0 69 4.4 NE 13 22 7 12 1009.2 1009.2 0.0
07/02:00pm 29.6 32.5 23.8 71 4.0 NE 15 20 8 11 1009.3 1009.3 0.0
07/01:30pm 29.8 32.8 24.0 71 4.0 NNE 15 20 8 11 1009.6 1009.6 0.0
07/01:00pm 30.0 33.3 23.9 70 4.2 NNE 13 20 7 11 1010.0 1010.0 0.0
07/12:30pm 29.5 32.4 23.9 72 3.9 NE 15 22 8 12 1010.3 1010.3 0.0
07/12:05pm 30.0 33.5 24.9 74 3.6 NE 15 22 8 12 1010.6 1010.6 0.0
07/12:00pm 29.6 32.6 24.0 72 3.9 NE 15 20 8 11 1010.6 1010.6 0.0
07/11:45am 29.1 32.4 23.8 73 3.7 NNE 13 22 7 12 1010.9 1010.9 0.0
07/11:30am 29.3 32.3 24.0 73 3.7 NE 15 20 8 11 1011.1 1011.1 0.0
07/11:00am 29.5 32.7 23.7 71 4.0 NE 13 19 7 10 1011.4 1011.4 0.0
07/10:30am 29.9 33.1 24.3 72 3.9 NE 15 20 8 11 1011.3 1011.3 0.0
07/10:00am 29.5 34.3 24.4 74 3.6 NE 7 17 4 9 1011.3 1011.3 0.0
07/09:30am 29.1 33.8 24.0 74 3.5 ENE 6 13 3 7 1011.2 1011.2 0.0
07/09:00am 28.2 33.2 23.8 77 3.0 SE 4 6 2 3 1011.2 1011.2 0.0
07/08:30am 27.9 32.5 24.1 80 2.6 SE 7 13 4 7 1010.9 1010.9 0.0
07/08:00am 26.8 31.3 23.9 84 2.0 SE 7 13 4 7 1010.5 1010.5 0.0
07/07:30am 25.9 30.6 23.4 86 1.7 SSE 4 11 2 6 1009.9 1009.9 0.0
07/07:00am 24.9 30.7 23.9 94 0.7 CALM 0 0 0 0 1009.6 1009.6 0.0
07/06:30am 24.4 29.8 23.2 93 0.8 CALM 0 2 0 1 1009.3 1009.3 0.0
07/06:13am 24.5 29.6 23.3 93 0.8 W 2 4 1 2 1009.2 1009.2 0.0
07/06:00am 24.4 29.7 23.0 92 0.9 CALM 0 0 0 0 1009.0 1009.0 0.0
07/05:38am 24.6 30.0 23.2 92 0.9 CALM 0 0 0 0 1008.7 1008.7 0.0
07/05:30am 24.7 30.0 23.1 91 1.1 CALM 0 2 0 1 1008.7 1008.7 0.0
07/05:13am 24.4 28.2 22.8 91 1.1 SE 7 9 4 5 1008.5 1008.5 0.0
07/05:00am 24.6 28.6 22.8 90 1.2 SE 6 11 3 6 1008.4 1008.4 0.0
07/04:30am 24.6 29.5 23.0 91 1.1 WNW 2 2 1 1 1008.1 1008.1 0.0
07/04:14am 24.6 29.5 23.0 91 1.1 WNW 2 4 1 2 1008.1 1008.1 0.0
07/04:00am 24.5 29.3 22.9 91 1.1 W 2 4 1 2 1007.9 1007.9 0.0
07/03:30am 24.7 29.4 23.3 92 0.9 SSE 4 7 2 4 1007.6 1007.6 0.0
07/03:00am 24.8 30.1 23.0 90 1.2 CALM 0 0 0 0 1007.8 1007.8 0.0
07/02:30am 24.9 30.0 23.3 91 1.1 S 2 4 1 2 1008.1 1008.1 0.0
07/02:00am 24.9 29.0 23.0 89 1.3 SE 6 7 3 4 1008.3 1008.3 0.0
07/01:30am 24.9 30.0 23.3 91 1.1 W 2 6 1 3 1008.6 1008.6 0.0
07/01:00am 25.0 30.0 23.2 90 1.2 W 2 2 1 1 1008.6 1008.6 0.0
07/12:30am 25.2 29.4 23.1 88 1.4 SE 6 9 3 5 1008.8 1008.8 0.0
07/12:00am 25.6 31.2 23.5 88 1.4 CALM 0 0 0 0 1009.1 1009.1 0.0
 
Date/Time
EST
Temp
°C
App
Temp
°C
Dew
Point
°C
Rel
Hum
%
Delta-T
°C
Wind Press
QNH
hPa
Press
MSL
hPa
Rain since
9am
mm
Dir  Spd
km/h
Gust
km/h
Spd
kts
Gust
kts
06/11:30pm 25.6 31.0 23.3 87 1.6 CALM 0 0 0 0 1009.3 1009.3 0.0
06/11:29pm 25.6 31.2 23.5 88 1.4 CALM 0 0 0 0 1009.3 1009.3 0.0
06/11:00pm 25.8 31.0 22.9 84 2.0 CALM 0 0 0 0 1009.6 1009.6 0.0
06/10:36pm 26.2 30.7 22.3 79 2.6 W 2 4 1 2 1009.7 1009.7 0.0
06/10:30pm 26.2 30.2 22.1 78 2.7 W 4 6 2 3 1009.7 1009.7 0.0
06/10:00pm 26.3 30.0 22.2 78 2.8 W 6 7 3 4 1009.6 1009.6 0.0
06/09:30pm 26.4 29.6 22.3 78 2.8 W 9 17 5 9 1009.4 1009.4 0.0
06/09:00pm 26.3 30.5 23.2 83 2.1 W 6 9 3 5 1009.2 1009.2 0.0
06/08:30pm 26.3 30.8 23.6 85 1.8 W 6 9 3 5 1008.7 1008.7 0.0
06/08:00pm 26.2 30.8 23.1 83 2.1 NW 4 6 2 3 1008.4 1008.4 0.0
06/07:30pm 27.0 31.3 22.6 77 3.0 W 4 7 2 4 1008.3 1008.3 0.0
06/07:00pm 27.3 32.2 24.4 84 2.0 W 6 7 3 4 1007.9 1007.9 0.0
06/06:30pm 27.3 32.8 24.6 85 1.9 NW 4 7 2 4 1007.5 1007.5 0.0
06/06:00pm 27.6 32.9 24.4 83 2.2 NW 4 6 2 3 1007.5 1007.5 0.0
06/05:30pm 27.6 31.9 24.2 82 2.4 NNW 9 13 5 7 1007.2 1007.2 0.0
06/05:00pm 27.8 32.6 24.4 82 2.4 N 7 13 4 7 1006.9 1006.9 0.0
06/04:30pm 28.1 32.7 24.1 79 2.8 N 7 11 4 6 1006.7 1006.7 0.0
06/04:00pm 28.3 32.4 23.9 77 3.0 NNW 9 15 5 8 1006.6 1006.6 0.0
06/03:30pm 28.4 32.8 23.8 76 3.2 N 7 17 4 9 1006.8 1006.8 0.0
06/03:00pm 28.5 30.9 23.6 75 3.4 N 17 24 9 13 1006.5 1006.5 0.0
06/02:30pm 28.7 31.0 23.4 73 3.6 NNE 17 20 9 11 1006.3 1006.3 0.0
06/02:00pm 29.6 33.2 23.1 68 4.5 NNW 9 13 5 7 1006.6 1006.6 0.0
06/01:30pm 29.5 32.3 23.0 68 4.4 WNW 13 19 7 10 1006.9 1006.9 0.0
06/01:00pm 29.4 33.5 24.5 75 3.4 NNW 11 20 6 11 1007.4 1007.4 0.0
06/12:30pm 28.5 31.6 24.1 77 3.0 N 15 20 8 11 1007.9 1007.9 0.0
06/12:00pm 29.1 32.5 25.3 80 2.7 N 17 24 9 13 1008.4 1008.4 0.0
06/11:30am 29.1 33.3 24.7 77 3.1 N 11 17 6 9 1008.5 1008.5 0.0
06/11:00am 28.8 32.9 23.9 75 3.4 N 9 17 5 9 1008.8 1008.8 0.0
06/10:30am 28.9 33.2 23.3 72 3.8 N 6 9 3 5 1008.8 1008.8 0.0
06/10:00am 27.9 32.8 23.7 78 2.9 NNE 4 7 2 4 1008.9 1008.9 0.0
06/09:30am 27.9 33.5 23.5 77 3.0 CALM 0 4 0 2 1009.0 1009.0 0.0
06/09:00am 26.9 30.5 22.1 75 3.2 SE 6 9 3 5 1009.0 1009.0 0.0
06/08:30am 26.5 29.5 21.9 76 3.1 SE 9 11 5 6 1008.8 1008.8 0.0
06/08:00am 26.0 29.1 21.4 76 3.1 SE 7 11 4 6 1008.5 1008.5 0.0
06/07:30am 26.4 30.9 21.6 75 3.2 CALM 0 0 0 0 1008.0 1008.0 0.0
06/07:00am 24.5 29.0 22.9 91 1.1 WNW 4 6 2 3 1007.7 1007.7 0.0
06/06:30am 23.8 28.3 22.2 91 1.1 SSE 2 2 1 1 1007.4 1007.4 0.0
06/06:00am 23.6 27.9 22.0 91 1.1 SSE 2 7 1 4 1007.1 1007.1 0.0
06/05:30am 24.1 28.7 22.4 90 1.1 W 2 4 1 2 1007.1 1007.1 0.0
06/05:18am 24.1 28.6 22.2 89 1.3 WSW 2 6 1 3 1007.0 1007.0 0.0
06/05:05am 24.0 27.4 21.7 87 1.5 SW 6 9 3 5 1006.9 1006.9 0.0
06/05:00am 24.1 27.3 21.2 84 1.9 SSE 6 9 3 5 1006.7 1006.7 0.0
06/04:30am 23.7 28.5 22.1 91 1.1 CALM 0 0 0 0 1006.5 1006.5 0.0
06/04:00am 23.9 28.9 22.5 92 0.9 CALM 0 0 0 0 1006.5 1006.5 0.0
06/03:30am 24.0 28.7 21.9 88 1.4 CALM 0 2 0 1 1006.6 1006.6 0.0
06/03:00am 24.3 28.0 22.2 88 1.4 SE 6 7 3 4 1006.4 1006.4 0.0
06/02:30am 24.4 29.1 22.7 90 1.1 WNW 2 4 1 2 1006.6 1006.6 0.0
06/02:00am 24.7 29.1 21.4 82 2.2 CALM 0 0 0 0 1006.5 1006.5 0.0
06/01:30am 24.8 29.2 21.3 81 2.3 CALM 0 2 0 1 1006.8 1006.8 0.0
06/01:12am 24.7 28.1 21.6 83 2.1 SSE 6 7 3 4 1007.0 1007.0 0.0
06/01:00am 24.8 28.0 21.7 83 2.1 SSE 7 11 4 6 1007.2 1007.2 0.0
06/12:30am 24.6 27.6 21.9 85 1.8 SE 9 13 5 7 1007.5 1007.5 0.0
06/12:00am 24.7 27.8 22.2 86 1.7 SE 9 13 5 7 1007.8 1007.8 0.0
 
Date/Time
EST
Temp
°C
App
Temp
°C
Dew
Point
°C
Rel
Hum
%
Delta-T
°C
Wind Press
QNH
hPa
Press
MSL
hPa
Rain since
9am
mm
Dir  Spd
km/h
Gust
km/h
Spd
kts
Gust
kts
05/11:30pm 25.0 28.3 21.9 83 2.1 SE 7 11 4 6 1008.2 1008.2 0.0
05/11:00pm 25.6 30.9 23.1 86 1.7 CALM 0 0 0 0 1008.4 1008.4 0.0
05/10:30pm 25.7 30.4 23.4 87 1.6 S 4 6 2 3 1008.2 1008.2 0.0
05/10:00pm 26.1 31.3 23.6 86 1.7 ESE 2 6 1 3 1008.0 1008.0 0.0
05/09:30pm 26.3 31.8 23.4 84 2.0 CALM 0 2 0 1 1008.2 1008.2 0.0
05/09:00pm 26.7 31.2 23.0 80 2.5 SSW 4 13 2 7 1007.7 1007.7 0.0
05/08:30pm 27.0 30.5 22.8 78 2.8 S 9 15 5 8 1007.3 1007.3 0.0
05/08:00pm 26.9 30.6 23.2 80 2.5 S 9 19 5 10 1007.1 1007.1 0.0
05/07:30pm 27.0 31.9 23.0 79 2.7 WSW 2 6 1 3 1006.8 1006.8 0.0
05/07:00pm 27.2 31.7 23.0 78 2.9 S 4 11 2 6 1006.6 1006.6 0.0
05/06:30pm 28.1 32.0 22.6 72 3.7 ENE 6 9 3 5 1006.1 1006.1 0.0
05/06:00pm 28.6 32.9 22.6 70 4.1 NE 4 6 2 3 1005.5 1005.5 0.0
05/05:30pm 28.3 32.4 23.0 73 3.6 ENE 6 11 3 6 1005.2 1005.2 0.0
05/05:00pm 28.5 32.4 22.5 70 4.1 NNE 6 7 3 4 1004.9 1004.9 0.0
05/04:30pm 28.6 32.6 23.1 72 3.8 ENE 7 11 4 6 1004.8 1004.8 0.0
05/04:00pm 29.1 32.5 23.3 71 4.0 NE 11 17 6 9 1004.5 1004.5 0.0
05/03:30pm 29.9 33.4 22.1 63 5.3 NE 7 11 4 6 1004.5 1004.5 0.0
05/03:00pm 29.7 32.4 21.4 61 5.6 ENE 9 15 5 8 1004.7 1004.7 0.0
05/02:30pm 30.7 34.5 23.4 65 5.0 ENE 9 17 5 9 1004.8 1004.8 0.0
05/02:00pm 30.4 33.6 22.3 62 5.5 ENE 9 17 5 9 1005.0 1005.0 0.0
05/01:30pm 31.2 34.2 23.3 63 5.4 NE 13 20 7 11 1005.4 1005.4 0.0
05/01:00pm 30.4 33.4 22.6 63 5.3 NE 11 17 6 9 1005.9 1005.9 0.0
05/12:30pm 29.8 32.9 22.8 66 4.8 NE 11 19 6 10 1006.6 1006.6 0.0

Other formats

Comma delimited format used in spreadsheet applications
http://www.bom.gov.au/fwo/IDQ60801/IDQ60801.94287.axf

JavaScript Object Notation format (JSON) in row-major order
http://www.bom.gov.au/fwo/IDQ60801/IDQ60801.94287.json

Data quality

Most of these data are generated automatically and are frequently updated. Quality checks on data are not normally performed. It is possible for incorrect values to appear. Refer to information at About Latest Weather Observations and please check the disclaimer before using these data.